< Typhoon 197019 1970 Season Typhoon 197021 >
Typhoon 197020 (KATE)
General InformationTrack Information on Google Maps || Disaster Info.ResourceGoogle EarthGE AnimationAtom FeedGeoJSON
Detalied Best Track (Time Zone = UTC)
Year Month Day Hour Lat. Long. Pressure (hPa) Wind (kt) Class Image Chart
1970 10 14 06 5.0 140.0 1002 0 2 -- Chart
1970 10 14 12 4.8 139.5 1002 0 2 -- Chart
1970 10 14 18 4.6 139.0 1000 0 2 -- Chart
1970 10 15 00 4.5 138.6 995 0 2 -- Chart
1970 10 15 06 4.4 138.1 985 0 9 -- Chart
1970 10 15 12 4.1 137.2 980 0 9 -- Chart
1970 10 15 18 4.7 136.1 980 0 9 -- Chart
1970 10 16 00 5.2 135.3 975 0 9 -- Chart
1970 10 16 06 4.9 134.0 965 0 9 -- Chart
1970 10 16 12 4.5 132.4 960 0 9 -- Chart
1970 10 16 18 4.5 131.5 945 0 9 -- Chart
1970 10 17 00 4.4 130.6 940 0 9 -- Chart
1970 10 17 06 4.6 129.9 940 0 9 -- Chart
1970 10 17 12 5.0 129.1 940 0 9 -- Chart
1970 10 17 18 5.0 128.4 945 0 9 -- Chart
1970 10 18 00 5.6 127.3 945 0 9 -- Chart
1970 10 18 06 6.1 126.2 950 0 9 -- Chart
1970 10 18 12 6.8 125.4 960 0 9 -- Chart
1970 10 18 18 7.7 124.2 975 0 9 -- Chart
1970 10 19 00 8.6 123.4 990 0 9 -- Chart
1970 10 19 06 9.7 122.6 995 0 9 -- Chart
1970 10 19 12 10.1 121.5 985 0 9 -- Chart
1970 10 19 18 11.0 121.0 980 0 9 -- Chart
1970 10 20 00 11.8 120.0 980 0 9 -- Chart
1970 10 20 06 12.3 119.2 970 0 9 -- Chart
1970 10 20 12 12.9 119.0 965 0 9 -- Chart
1970 10 20 18 13.6 118.4 960 0 9 -- Chart
1970 10 21 00 14.3 118.1 960 0 9 -- Chart
1970 10 21 06 15.0 117.9 960 0 9 -- Chart
1970 10 21 12 15.6 117.7 960 0 9 -- Chart
1970 10 21 18 16.0 117.6 955 0 9 -- Chart
1970 10 22 00 16.3 117.3 950 0 9 -- Chart
1970 10 22 06 16.5 117.0 950 0 9 -- Chart
1970 10 22 12 16.6 116.6 945 0 9 -- Chart
1970 10 22 18 16.6 116.3 940 0 9 -- Chart
1970 10 23 00 16.6 115.9 950 0 9 -- Chart
1970 10 23 06 16.7 115.4 955 0 9 -- Chart
1970 10 23 12 16.5 114.5 950 0 9 -- Chart
1970 10 23 18 16.3 113.6 960 0 9 -- Chart
1970 10 24 00 16.0 112.5 975 0 9 -- Chart
1970 10 24 06 16.0 111.5 980 0 9 -- Chart
1970 10 24 12 15.9 110.7 985 0 9 -- Chart
1970 10 24 18 16.0 109.9 990 0 9 -- Chart
1970 10 25 00 15.9 109.0 990 0 9 -- Chart
1970 10 25 06 15.8 108.0 990 0 9 -- Chart
1970 10 25 12 16.0 107.0 1000 0 2 -- Chart
1970 10 25 18 16.0 106.5 1002 0 2 -- Chart
1970 10 26 00 16.0 106.0 1006 0 2 -- Chart
Japan Meteorological Agency Best Track Data | Correction Date : 1989-06-01
< Typhoon 197019 1970 Season Typhoon 197021 >

Help